createdAt,value
2019-04-14T00:01:41.041Z,81.40
2019-04-14T00:04:13.987Z,81.70
2019-04-14T00:06:42.514Z,81.70
2019-04-14T00:09:14.081Z,82.20
2019-04-14T00:11:40.988Z,82.00
2019-04-14T00:14:09.579Z,82.50
2019-04-14T00:16:38.030Z,82.20
2019-04-14T00:19:06.471Z,82.10
2019-04-14T00:21:34.608Z,82.20
2019-04-14T00:24:03.006Z,82.40
2019-04-14T00:26:31.651Z,82.40
2019-04-14T00:29:00.063Z,82.40
2019-04-14T00:31:28.607Z,82.40
2019-04-14T00:33:58.629Z,82.80
2019-04-14T00:36:45.964Z,82.90
2019-04-14T00:39:18.770Z,82.90
2019-04-14T00:41:55.625Z,83.10
2019-04-14T00:44:40.862Z,83.30
2019-04-14T00:47:22.079Z,83.30
2019-04-14T00:49:50.772Z,83.50
2019-04-14T00:52:18.965Z,83.60
2019-04-14T00:54:47.691Z,83.90
2019-04-14T00:57:15.876Z,83.80
2019-04-14T00:59:44.056Z,83.60
2019-04-14T01:02:12.396Z,83.70
2019-04-14T01:04:40.491Z,83.80
2019-04-14T01:07:08.767Z,84.60
2019-04-14T01:09:37.009Z,83.80
2019-04-14T01:12:04.581Z,83.40
2019-04-14T01:14:32.051Z,83.10
2019-04-14T01:17:00.456Z,83.10
2019-04-14T01:19:28.733Z,83.20
2019-04-14T01:21:56.696Z,83.20
2019-04-14T01:24:24.982Z,83.40
2019-04-14T01:26:52.888Z,83.20
2019-04-14T01:29:20.930Z,83.40
2019-04-14T01:31:49.341Z,83.30
2019-04-14T01:34:17.319Z,83.60
2019-04-14T01:36:45.313Z,83.30
2019-04-14T01:39:13.312Z,83.70
2019-04-14T01:41:41.104Z,83.70
2019-04-14T01:44:09.133Z,83.70
2019-04-14T01:46:37.381Z,83.90
2019-04-14T01:49:05.098Z,84.10
2019-04-14T01:51:50.755Z,84.10
2019-04-14T01:54:38.766Z,84.10
2019-04-14T01:57:15.400Z,84.20
2019-04-14T01:59:43.819Z,84.40
2019-04-14T02:02:14.155Z,84.10
2019-04-14T02:04:42.716Z,83.90
2019-04-14T02:07:10.829Z,84.00
2019-04-14T02:09:40.182Z,84.10
2019-04-14T02:12:08.469Z,84.00
2019-04-14T02:14:36.523Z,84.10
2019-04-14T02:17:04.959Z,84.00
2019-04-14T02:19:33.119Z,84.20
2019-04-14T02:22:00.714Z,84.40
2019-04-14T02:24:28.921Z,84.50
2019-04-14T02:26:56.985Z,84.50
2019-04-14T02:29:25.506Z,83.80
2019-04-14T02:33:13.523Z,84.30
2019-04-14T02:34:47.977Z,84.20
2019-04-14T02:39:54.043Z,84.40
2019-04-14T02:42:34.312Z,83.90
2019-04-14T02:44:43.979Z,84.30
2019-04-14T02:47:38.561Z,84.40
2019-04-14T02:49:45.596Z,84.40
2019-04-14T02:52:11.977Z,84.40
2019-04-14T02:57:20.457Z,84.80
2019-04-14T02:59:42.946Z,85.10
2019-04-14T03:10:16.378Z,85.60
2019-04-14T03:12:31.662Z,85.30
2019-04-14T03:14:53.700Z,85.20
2019-04-14T03:18:02.418Z,85.40
2019-04-14T03:20:49.951Z,85.50
2019-04-14T03:23:17.141Z,85.80
2019-04-14T03:25:34.307Z,85.80
2019-04-14T03:28:36.386Z,85.80
2019-04-14T03:31:30.483Z,85.80
2019-04-14T03:38:55.023Z,84.70
2019-04-14T03:41:13.698Z,84.70
2019-04-14T03:43:33.745Z,84.90
2019-04-14T03:51:00.673Z,85.80
2019-04-14T03:53:30.703Z,85.70
2019-04-14T03:56:14.012Z,85.40
2019-04-14T03:58:39.954Z,85.70
2019-04-14T04:01:08.268Z,85.70
2019-04-14T04:03:36.813Z,85.90
2019-04-14T04:06:05.280Z,85.80
2019-04-14T04:08:33.401Z,85.60
2019-04-14T04:11:02.091Z,86.10
2019-04-14T04:13:30.224Z,86.10
2019-04-14T04:16:12.094Z,86.10
2019-04-14T04:18:50.909Z,86.30
2019-04-14T04:21:18.510Z,86.80
2019-04-14T04:24:12.862Z,87.00
2019-04-14T04:26:56.053Z,87.10
2019-04-14T04:29:33.020Z,87.40
2019-04-14T04:32:07.811Z,87.70
2019-04-14T04:34:51.259Z,87.40
2019-04-14T04:37:41.177Z,87.50
2019-04-14T04:40:13.623Z,87.40
2019-04-14T04:42:41.633Z,87.60
2019-04-14T04:45:10.379Z,88.20
2019-04-14T04:47:38.363Z,88.10
2019-04-14T04:50:06.538Z,88.00
2019-04-14T04:52:34.353Z,88.00
2019-04-14T04:55:02.585Z,88.10
2019-04-14T04:57:30.634Z,88.00
2019-04-14T04:59:58.154Z,88.10
2019-04-14T05:02:26.670Z,88.70
2019-04-14T05:04:54.785Z,88.70
2019-04-14T05:07:23.111Z,88.70
2019-04-14T05:10:09.052Z,88.90
2019-04-14T05:12:48.532Z,88.60
2019-04-14T05:15:33.933Z,88.70
2019-04-14T05:18:02.729Z,89.10
2019-04-14T05:20:31.370Z,89.30
2019-04-14T05:22:59.371Z,89.70
2019-04-14T05:25:27.589Z,89.90
2019-04-14T05:27:55.849Z,90.00
2019-04-14T05:30:24.304Z,89.80
2019-04-14T05:32:52.226Z,89.50
2019-04-14T05:35:20.596Z,89.50
2019-04-14T05:37:48.666Z,89.70
2019-04-14T05:40:16.792Z,89.30
2019-04-14T05:42:45.085Z,89.30
2019-04-14T05:45:13.331Z,89.60
2019-04-14T05:47:41.489Z,89.50
2019-04-14T05:50:09.543Z,89.80
2019-04-14T05:52:38.162Z,89.70
2019-04-14T05:55:06.632Z,89.50
2019-04-14T05:57:35.300Z,89.70
2019-04-14T06:00:04.532Z,89.20
2019-04-14T06:02:32.149Z,89.30
2019-04-14T06:05:01.540Z,89.10
2019-04-14T06:07:28.924Z,89.20
2019-04-14T06:09:56.157Z,89.10
2019-04-14T06:12:23.349Z,89.00
2019-04-14T06:14:51.097Z,88.90
2019-04-14T06:17:18.872Z,88.70
2019-04-14T06:19:46.252Z,89.10
2019-04-14T06:22:13.765Z,89.60
2019-04-14T06:24:41.534Z,89.90
2019-04-14T06:27:08.968Z,90.00
2019-04-14T06:29:36.289Z,90.00
2019-04-14T06:32:25.578Z,89.80
2019-04-14T06:35:10.278Z,89.80
2019-04-14T06:37:57.148Z,90.00
2019-04-14T06:40:25.481Z,90.20
2019-04-14T06:42:52.802Z,90.50
2019-04-14T06:45:20.213Z,90.40
2019-04-14T06:47:47.681Z,90.40
2019-04-14T06:50:15.196Z,90.70
2019-04-14T06:52:42.580Z,90.50
2019-04-14T06:55:09.937Z,90.50
2019-04-14T06:57:37.240Z,90.50
2019-04-14T07:00:05.070Z,90.50
2019-04-14T07:02:32.560Z,90.40
2019-04-14T07:04:59.961Z,90.70
2019-04-14T07:07:27.368Z,90.50
2019-04-14T07:09:54.807Z,90.50
2019-04-14T07:12:22.337Z,90.70
2019-04-14T07:14:49.620Z,91.00
2019-04-14T07:17:17.422Z,91.10
2019-04-14T07:19:44.781Z,90.90
2019-04-14T07:22:12.000Z,91.00
2019-04-14T07:24:39.361Z,91.70
2019-04-14T07:27:07.353Z,91.70
2019-04-14T07:29:41.239Z,91.70
2019-04-14T07:32:18.578Z,91.90
2019-04-14T07:35:08.512Z,91.80
2019-04-14T07:37:58.250Z,91.90
2019-04-14T07:40:43.954Z,92.30
2019-04-14T07:43:29.385Z,92.40
2019-04-14T07:46:08.400Z,92.20
2019-04-14T07:48:41.833Z,92.50
2019-04-14T07:51:37.487Z,92.60
2019-04-14T07:54:20.222Z,92.60
2019-04-14T07:57:01.785Z,92.70
2019-04-14T07:59:49.206Z,92.50
2019-04-14T08:02:29.853Z,92.50
2019-04-14T08:05:01.202Z,92.50
2019-04-14T08:07:28.682Z,92.60
2019-04-14T08:09:56.038Z,92.50
2019-04-14T08:12:23.513Z,92.50
2019-04-14T08:14:52.054Z,92.40
2019-04-14T08:17:19.366Z,92.60
2019-04-14T08:19:46.632Z,92.40
2019-04-14T08:22:14.090Z,92.50
2019-04-14T08:24:41.305Z,92.70
2019-04-14T08:27:08.541Z,93.20
2019-04-14T08:29:35.848Z,92.90
2019-04-14T08:32:03.346Z,93.00
2019-04-14T08:34:30.685Z,93.10
2019-04-14T08:36:58.209Z,93.20
2019-04-14T08:39:25.505Z,93.30
2019-04-14T08:42:08.128Z,93.00
2019-04-14T08:44:43.314Z,93.00
2019-04-14T08:47:28.892Z,93.20
2019-04-14T08:50:00.006Z,93.20
2019-04-14T08:52:55.709Z,93.30
2019-04-14T08:55:32.068Z,93.20
2019-04-14T08:58:11.478Z,93.00
2019-04-14T09:00:58.426Z,93.20
2019-04-14T09:04:03.229Z,93.40
2019-04-14T09:06:37.334Z,93.40
2019-04-14T09:09:27.959Z,93.40
2019-04-14T09:12:01.028Z,93.30
2019-04-14T09:14:28.253Z,92.80
2019-04-14T09:16:56.359Z,93.20
2019-04-14T09:19:24.117Z,93.10
2019-04-14T09:21:51.333Z,93.10
2019-04-14T09:24:18.627Z,92.80
2019-04-14T09:26:45.861Z,92.80
2019-04-14T09:29:13.224Z,93.20
2019-04-14T09:31:40.569Z,93.30
2019-04-14T09:34:07.937Z,93.20
2019-04-14T09:36:35.287Z,92.90
2019-04-14T09:39:04.200Z,93.10
2019-04-14T09:41:31.481Z,93.20
2019-04-14T09:43:58.704Z,93.20
2019-04-14T09:46:25.911Z,92.90
2019-04-14T09:48:53.283Z,93.00
2019-04-14T09:51:20.504Z,93.00
2019-04-14T09:53:47.866Z,93.20
2019-04-14T09:56:15.216Z,93.30
2019-04-14T09:58:42.657Z,93.00
2019-04-14T10:01:10.041Z,93.10
2019-04-14T10:03:37.352Z,93.50
2019-04-14T10:06:04.881Z,93.30
2019-04-14T10:08:32.556Z,93.30
2019-04-14T10:10:59.872Z,92.70
2019-04-14T10:13:27.232Z,93.00
2019-04-14T10:15:54.604Z,92.80
2019-04-14T10:18:22.951Z,92.70
2019-04-14T10:20:50.234Z,92.90
2019-04-14T10:23:17.612Z,92.70
2019-04-14T10:25:45.206Z,92.90
2019-04-14T10:28:12.414Z,93.10
2019-04-14T10:30:39.842Z,92.80
2019-04-14T10:33:07.305Z,93.00
2019-04-14T10:35:34.523Z,93.00
2019-04-14T10:38:01.933Z,93.50
2019-04-14T10:40:29.471Z,93.10
2019-04-14T10:42:56.834Z,93.30
2019-04-14T10:45:24.061Z,93.30
2019-04-14T10:47:51.458Z,93.00
2019-04-14T10:50:30.145Z,93.30
2019-04-14T10:52:48.183Z,93.40
2019-04-14T10:55:15.473Z,93.60
2019-04-14T10:57:42.904Z,93.70
2019-04-14T11:00:13.517Z,93.30
2019-04-14T11:02:40.848Z,93.10
2019-04-14T11:05:08.557Z,93.60
2019-04-14T11:07:35.957Z,93.50
2019-04-14T11:10:04.184Z,93.20
2019-04-14T11:12:31.380Z,93.60
2019-04-14T11:14:58.784Z,93.30
2019-04-14T11:17:26.180Z,93.30
2019-04-14T11:19:54.380Z,93.50
2019-04-14T11:22:21.908Z,93.70
2019-04-14T11:24:49.137Z,93.70
2019-04-14T11:27:16.548Z,93.40
2019-04-14T11:29:44.213Z,93.40
2019-04-14T11:32:40.442Z,93.70
2019-04-14T11:35:24.106Z,93.70
2019-04-14T11:38:02.333Z,93.50
2019-04-14T11:40:34.697Z,93.80
2019-04-14T11:43:02.288Z,93.80
2019-04-14T11:45:29.532Z,93.90
2019-04-14T11:47:56.905Z,93.70
2019-04-14T11:50:24.260Z,93.60
2019-04-14T11:52:51.485Z,93.30
2019-04-14T11:55:18.696Z,93.10
2019-04-14T11:57:45.960Z,93.10
2019-04-14T12:00:33.103Z,93.00
2019-04-14T12:03:25.890Z,92.50
2019-04-14T12:06:12.958Z,92.60
2019-04-14T12:08:45.845Z,92.70
2019-04-14T12:11:13.247Z,92.80
2019-04-14T12:13:40.463Z,92.70
2019-04-14T12:16:07.841Z,92.90
2019-04-14T12:18:35.120Z,92.80
2019-04-14T12:21:02.533Z,93.10
2019-04-14T12:23:30.218Z,92.60
2019-04-14T12:26:05.242Z,92.50
2019-04-14T12:28:26.865Z,92.50
2019-04-14T12:30:55.386Z,92.50
2019-04-14T12:33:22.824Z,92.40
2019-04-14T12:35:50.065Z,92.30
2019-04-14T12:38:17.369Z,92.40
2019-04-14T12:40:44.727Z,92.30
2019-04-14T12:43:37.582Z,92.30
2019-04-14T12:46:30.501Z,92.20
2019-04-14T12:49:08.544Z,92.40
2019-04-14T12:51:39.165Z,92.00
2019-04-14T12:54:06.409Z,92.30
2019-04-14T12:56:33.788Z,91.60
2019-04-14T12:59:23.086Z,91.80
2019-04-14T13:01:57.892Z,92.20
2019-04-14T13:04:25.157Z,91.80
2019-04-14T13:06:52.419Z,91.70
2019-04-14T13:09:19.713Z,91.90
2019-04-14T13:11:47.082Z,92.20
2019-04-14T13:14:14.554Z,92.10
2019-04-14T13:16:41.860Z,91.60
2019-04-14T13:19:09.129Z,91.50
2019-04-14T13:21:36.454Z,91.00
2019-04-14T13:24:05.156Z,90.90
2019-04-14T13:26:32.813Z,90.20
2019-04-14T13:29:00.253Z,90.40
2019-04-14T13:31:27.932Z,90.30
2019-04-14T13:33:57.062Z,90.10
2019-04-14T13:36:24.344Z,90.50
2019-04-14T13:38:52.169Z,90.60
2019-04-14T13:41:19.668Z,90.40
2019-04-14T13:43:47.036Z,90.80
2019-04-14T13:46:14.349Z,90.90
2019-04-14T13:48:42.081Z,90.70
2019-04-14T13:51:09.723Z,90.80
2019-04-14T13:53:37.037Z,90.40
2019-04-14T13:56:04.317Z,90.20
2019-04-14T13:58:31.680Z,90.10
2019-04-14T14:00:59.005Z,88.90
2019-04-14T14:03:26.257Z,90.00
2019-04-14T14:05:53.573Z,89.60
2019-04-14T14:08:20.921Z,89.60
2019-04-14T14:10:48.271Z,90.30
2019-04-14T14:13:34.878Z,90.40
2019-04-14T14:16:16.258Z,90.60
2019-04-14T14:18:48.394Z,90.50
2019-04-14T14:21:40.773Z,90.90
2019-04-14T14:24:31.000Z,90.60
2019-04-14T14:26:58.613Z,90.90
2019-04-14T14:29:26.129Z,90.80
2019-04-14T14:31:53.961Z,91.00
2019-04-14T14:34:22.143Z,90.90
2019-04-14T14:36:49.603Z,91.00
2019-04-14T14:39:19.818Z,90.80
2019-04-14T14:41:47.161Z,91.10
2019-04-14T14:44:14.402Z,90.90
2019-04-14T14:46:57.277Z,90.80
2019-04-14T14:49:30.613Z,90.90
2019-04-14T14:52:05.344Z,90.70
2019-04-14T14:54:32.837Z,90.90
2019-04-14T14:57:00.105Z,91.00
2019-04-14T14:59:27.330Z,91.00
2019-04-14T15:01:54.679Z,90.80
2019-04-14T15:04:21.944Z,90.90
2019-04-14T15:06:49.447Z,90.90
2019-04-14T15:09:16.729Z,90.90
2019-04-14T15:11:44.261Z,90.90
2019-04-14T15:14:11.612Z,91.00
2019-04-14T15:16:38.945Z,91.30
2019-04-14T15:19:06.369Z,91.40
2019-04-14T15:21:33.605Z,91.20
2019-04-14T15:24:01.132Z,91.40
2019-04-14T15:26:28.677Z,91.60
2019-04-14T15:28:55.965Z,91.80
2019-04-14T15:31:23.302Z,91.80
2019-04-14T15:33:50.865Z,91.80
2019-04-14T15:36:18.086Z,92.10
2019-04-14T15:38:45.348Z,91.80
2019-04-14T15:41:12.659Z,91.50
2019-04-14T15:43:40.294Z,91.20
2019-04-14T15:46:07.657Z,91.10
2019-04-14T15:48:34.853Z,91.00
2019-04-14T15:51:02.236Z,90.90
2019-04-14T15:53:37.865Z,91.20
2019-04-14T15:55:59.412Z,91.10
2019-04-14T15:58:44.968Z,91.10
2019-04-14T16:01:30.291Z,91.00
2019-04-14T16:04:05.907Z,90.80
2019-04-14T16:06:58.485Z,90.80
2019-04-14T16:09:47.897Z,90.90
2019-04-14T16:12:25.134Z,90.80
2019-04-14T16:15:14.769Z,90.90
2019-04-14T16:17:47.397Z,90.80
2019-04-14T16:20:18.050Z,90.70
2019-04-14T16:22:45.317Z,90.80
2019-04-14T16:25:12.684Z,91.00
2019-04-14T16:28:02.415Z,91.10
2019-04-14T16:30:49.320Z,90.90
2019-04-14T16:33:30.736Z,90.80
2019-04-14T16:35:58.262Z,90.90
2019-04-14T16:38:25.639Z,90.90
2019-04-14T16:40:52.897Z,90.80
2019-04-14T16:43:20.134Z,90.70
2019-04-14T16:45:47.591Z,90.80
2019-04-14T16:48:15.149Z,90.70
2019-04-14T16:50:42.493Z,90.70
2019-04-14T16:53:20.628Z,91.00
2019-04-14T16:55:58.325Z,91.20
2019-04-14T16:58:31.034Z,91.40
2019-04-14T17:01:01.756Z,91.70
2019-04-14T17:03:29.251Z,91.70
2019-04-14T17:05:56.517Z,91.90
2019-04-14T17:08:23.994Z,91.50
2019-04-14T17:10:51.463Z,91.60
2019-04-14T17:13:18.881Z,91.50
2019-04-14T17:15:57.303Z,91.60
2019-04-14T17:18:44.159Z,91.60
2019-04-14T17:21:33.553Z,91.80
2019-04-14T17:24:16.378Z,91.80
2019-04-14T17:26:42.341Z,92.00
2019-04-14T17:29:23.822Z,91.90
2019-04-14T17:32:09.379Z,92.00
2019-04-14T17:34:43.217Z,92.20
2019-04-14T17:37:39.072Z,92.50
2019-04-14T17:40:18.885Z,92.70
2019-04-14T17:42:54.522Z,92.80
2019-04-14T17:45:42.445Z,92.90
2019-04-14T17:48:21.581Z,93.10
2019-04-14T17:50:54.077Z,93.00
2019-04-14T17:53:53.273Z,93.00
2019-04-14T17:56:28.581Z,93.00
2019-04-14T17:59:30.350Z,93.10
2019-04-14T18:02:23.280Z,93.20
2019-04-14T18:05:13.165Z,93.30
2019-04-14T18:07:48.205Z,93.30
2019-04-14T18:10:35.120Z,93.30
2019-04-14T18:13:10.897Z,93.40
2019-04-14T18:15:56.534Z,93.50
2019-04-14T18:18:30.889Z,93.50
2019-04-14T18:21:01.740Z,93.50
2019-04-14T18:23:29.009Z,93.50
2019-04-14T18:25:56.331Z,93.60
2019-04-14T18:28:33.840Z,93.70
2019-04-14T18:31:29.810Z,93.60
2019-04-14T18:34:07.659Z,93.70
2019-04-14T18:36:39.248Z,93.60
2019-04-14T18:39:30.213Z,93.60
2019-04-14T18:42:16.169Z,93.70
2019-04-14T18:44:52.491Z,93.70
2019-04-14T18:47:23.713Z,93.70
2019-04-14T18:50:13.540Z,93.90
2019-04-14T18:53:09.686Z,94.00
2019-04-14T18:55:42.828Z,93.90
2019-04-14T18:58:25.838Z,93.70
2019-04-14T19:00:58.541Z,93.60
2019-04-14T19:03:25.797Z,93.70
2019-04-14T19:05:53.184Z,93.80
2019-04-14T19:08:20.640Z,93.60
2019-04-14T19:11:01.665Z,93.60
2019-04-14T19:13:31.009Z,93.70
2019-04-14T19:16:05.770Z,93.60
2019-04-14T19:18:42.454Z,93.90
2019-04-14T19:21:22.213Z,94.10
2019-04-14T19:23:50.745Z,94.10
2019-04-14T19:26:18.325Z,94.10
2019-04-14T19:28:45.584Z,94.20
2019-04-14T19:31:14.160Z,94.20
2019-04-14T19:33:41.478Z,94.10
2019-04-14T19:36:08.903Z,94.10
2019-04-14T19:38:36.386Z,94.10
2019-04-14T19:41:06.216Z,94.10
2019-04-14T19:43:33.625Z,94.10
2019-04-14T19:46:01.172Z,93.90
2019-04-14T19:48:30.080Z,94.30
2019-04-14T19:50:57.626Z,94.30
2019-04-14T19:53:24.977Z,94.30
2019-04-14T19:55:52.370Z,94.30
2019-04-14T19:58:19.828Z,93.90
2019-04-14T20:00:47.576Z,94.20
2019-04-14T20:03:15.172Z,94.20
2019-04-14T20:05:42.580Z,94.30
2019-04-14T20:08:22.749Z,94.20
2019-04-14T20:10:50.157Z,94.30
2019-04-14T20:13:17.577Z,94.30
2019-04-14T20:16:00.483Z,94.50
2019-04-14T20:18:44.453Z,94.20
2019-04-14T20:21:16.868Z,94.50
2019-04-14T20:23:52.289Z,94.60
2019-04-14T20:26:51.402Z,94.50
2019-04-14T20:29:22.513Z,94.50
2019-04-14T20:32:00.664Z,94.60
2019-04-14T20:34:27.937Z,94.60
2019-04-14T20:36:55.294Z,94.50
2019-04-14T20:39:24.421Z,94.60
2019-04-14T20:41:51.769Z,94.70
2019-04-14T20:44:19.193Z,94.60
2019-04-14T20:46:46.539Z,94.50
2019-04-14T20:49:13.897Z,94.60
2019-04-14T20:51:41.248Z,94.70
2019-04-14T20:54:08.508Z,94.70
2019-04-14T20:56:35.760Z,94.60
2019-04-14T20:59:03.325Z,94.80
2019-04-14T21:01:32.808Z,94.80
2019-04-14T21:04:19.868Z,94.80
2019-04-14T21:06:54.641Z,94.70
2019-04-14T21:09:28.209Z,94.80
2019-04-14T21:11:59.876Z,94.90
2019-04-14T21:14:33.178Z,94.80
2019-04-14T21:17:05.993Z,94.70
2019-04-14T21:19:42.233Z,94.70
2019-04-14T21:22:22.991Z,95.00
2019-04-14T21:24:57.076Z,94.80
2019-04-14T21:27:35.933Z,94.80
2019-04-14T21:30:19.436Z,94.90
2019-04-14T21:33:12.125Z,94.80
2019-04-14T21:36:11.073Z,94.80
2019-04-14T21:39:00.953Z,95.10
2019-04-14T21:41:29.460Z,95.10
2019-04-14T21:43:56.767Z,94.90
2019-04-14T21:46:24.013Z,95.00
2019-04-14T21:48:51.212Z,95.00
2019-04-14T21:51:18.450Z,95.30
2019-04-14T21:53:46.857Z,95.40
2019-04-14T21:56:14.179Z,95.20
2019-04-14T21:59:13.229Z,95.20
2019-04-14T22:02:12.377Z,95.20
2019-04-14T22:04:58.045Z,95.10
2019-04-14T22:07:37.274Z,95.10
2019-04-14T22:10:31.937Z,95.30
2019-04-14T22:12:59.201Z,95.20
2019-04-14T22:15:26.445Z,95.50
2019-04-14T22:17:53.892Z,95.40
2019-04-14T22:20:21.242Z,95.30
2019-04-14T22:22:48.547Z,95.10
2019-04-14T22:25:15.856Z,95.30
2019-04-14T22:27:43.096Z,95.20
2019-04-14T22:30:10.823Z,95.10
2019-04-14T22:32:38.118Z,95.20
2019-04-14T22:35:05.643Z,95.10
2019-04-14T22:37:33.009Z,95.00
2019-04-14T22:40:00.364Z,94.90
2019-04-14T22:42:27.581Z,94.90
2019-04-14T22:44:55.028Z,94.90
2019-04-14T22:47:22.396Z,94.90
2019-04-14T22:49:49.652Z,94.90
2019-04-14T22:52:16.860Z,94.90
2019-04-14T22:54:44.221Z,95.00
2019-04-14T22:57:11.424Z,94.90
2019-04-14T22:59:38.633Z,95.00
2019-04-14T23:02:12.233Z,95.30
2019-04-14T23:04:45.600Z,95.40
2019-04-14T23:07:35.547Z,95.10
2019-04-14T23:10:19.484Z,95.40
2019-04-14T23:13:06.336Z,95.20
2019-04-14T23:15:55.572Z,95.20
2019-04-14T23:18:48.653Z,95.20
2019-04-14T23:21:30.816Z,95.20
2019-04-14T23:24:18.888Z,95.50
2019-04-14T23:26:52.246Z,95.40
2019-04-14T23:29:15.529Z,95.10
2019-04-14T23:31:42.913Z,95.10
2019-04-14T23:34:11.008Z,95.10
2019-04-14T23:36:38.308Z,95.00
2019-04-14T23:39:08.108Z,95.10
2019-04-14T23:41:35.345Z,95.00
2019-04-14T23:44:02.745Z,94.90
2019-04-14T23:46:29.990Z,94.90
2019-04-14T23:48:57.337Z,95.20
2019-04-14T23:51:24.816Z,95.10
2019-04-14T23:53:52.056Z,95.30
2019-04-14T23:56:19.248Z,95.20
2019-04-14T23:58:46.500Z,95.10
